createdAt,value
2022-09-14T00:01:45.389Z,15.07
2022-09-14T00:04:17.494Z,15.06
2022-09-14T00:06:46.873Z,15.03
2022-09-14T00:09:17.278Z,15.02
2022-09-14T00:11:46.396Z,15.07
2022-09-14T00:14:15.034Z,15.14
2022-09-14T00:16:45.899Z,15.13
2022-09-14T00:19:20.033Z,15.04
2022-09-14T00:21:52.870Z,15.01
2022-09-14T00:24:22.417Z,14.98
2022-09-14T00:26:51.301Z,14.93
2022-09-14T00:29:19.897Z,14.92
2022-09-14T00:31:49.894Z,14.95
2022-09-14T00:34:19.178Z,14.98
2022-09-14T00:36:50.305Z,14.99
2022-09-14T00:39:20.282Z,15.00
2022-09-14T00:41:50.545Z,14.99
2022-09-14T00:44:56.171Z,15.00
2022-09-14T00:47:26.302Z,14.92
2022-09-14T00:49:55.358Z,14.88
2022-09-14T00:52:26.951Z,14.88
2022-09-14T00:54:57.339Z,14.85
2022-09-14T00:57:27.144Z,14.83
2022-09-14T00:59:58.492Z,14.81
2022-09-14T01:02:29.767Z,14.76
2022-09-14T01:04:58.830Z,14.80
2022-09-14T01:07:50.803Z,14.78
2022-09-14T01:10:29.510Z,14.77
2022-09-14T01:13:10.002Z,14.74
2022-09-14T01:15:44.455Z,14.73
2022-09-14T01:18:17.868Z,14.74
2022-09-14T01:20:52.311Z,14.70
2022-09-14T01:23:29.813Z,14.70
2022-09-14T01:26:39.816Z,14.65
2022-09-14T01:29:14.662Z,14.64
2022-09-14T01:31:50.964Z,14.59
2022-09-14T01:34:28.271Z,14.58
2022-09-14T01:37:02.014Z,14.54
2022-09-14T01:39:33.844Z,14.52
2022-09-14T01:42:03.901Z,14.43
2022-09-14T01:44:38.569Z,14.35
2022-09-14T01:47:14.495Z,14.28
2022-09-14T01:49:49.036Z,14.27
2022-09-14T01:52:23.596Z,14.26
2022-09-14T01:54:56.849Z,14.28
2022-09-14T01:57:32.691Z,14.31
2022-09-14T02:00:06.662Z,14.30
2022-09-14T02:02:39.537Z,14.25
2022-09-14T02:05:11.774Z,14.23
2022-09-14T02:07:40.700Z,14.22
2022-09-14T02:10:12.854Z,14.16
2022-09-14T02:12:42.004Z,14.10
2022-09-14T02:15:14.918Z,14.07
2022-09-14T02:17:44.353Z,14.07
2022-09-14T02:20:16.997Z,13.98
2022-09-14T02:22:45.768Z,13.97
2022-09-14T02:25:14.298Z,13.93
2022-09-14T02:27:42.797Z,13.89
2022-09-14T02:30:16.638Z,13.90
2022-09-14T02:33:02.313Z,13.92
2022-09-14T02:35:37.491Z,13.86
2022-09-14T02:38:12.154Z,13.88
2022-09-14T02:40:44.991Z,13.86
2022-09-14T02:43:24.421Z,13.86
2022-09-14T02:46:01.992Z,13.79
2022-09-14T02:48:38.826Z,13.71
2022-09-14T02:51:13.895Z,13.65
2022-09-14T02:53:48.992Z,13.58
2022-09-14T02:56:21.336Z,13.52
2022-09-14T02:58:50.000Z,13.46
2022-09-14T03:01:22.745Z,13.45
2022-09-14T03:03:51.319Z,13.42
2022-09-14T03:06:19.703Z,13.41
2022-09-14T03:08:48.529Z,13.40
2022-09-14T03:11:17.276Z,13.45
2022-09-14T03:13:46.280Z,13.45
2022-09-14T03:16:18.598Z,13.49
2022-09-14T03:18:48.306Z,13.56
2022-09-14T03:21:18.629Z,13.65
2022-09-14T03:23:49.495Z,13.75
2022-09-14T03:26:19.268Z,13.84
2022-09-14T03:28:51.613Z,13.89
2022-09-14T03:31:20.855Z,13.96
2022-09-14T03:33:56.685Z,14.00
2022-09-14T03:36:26.562Z,14.04
2022-09-14T03:38:58.871Z,14.09
2022-09-14T03:41:27.284Z,14.12
2022-09-14T03:43:55.810Z,14.15
2022-09-14T03:46:27.060Z,14.19
2022-09-14T03:48:57.362Z,14.20
2022-09-14T03:51:25.788Z,14.19
2022-09-14T03:53:54.711Z,14.23
2022-09-14T03:56:24.526Z,14.19
2022-09-14T03:58:53.292Z,14.19
2022-09-14T04:01:23.676Z,14.17
2022-09-14T04:03:52.884Z,14.19
2022-09-14T04:06:22.874Z,14.20
2022-09-14T04:08:51.547Z,14.24
2022-09-14T04:11:21.501Z,14.25
2022-09-14T04:13:50.881Z,14.28
2022-09-14T04:16:21.311Z,14.30
2022-09-14T04:18:50.443Z,14.34
2022-09-14T04:21:23.616Z,14.38
2022-09-14T04:26:43.973Z,14.43
2022-09-14T04:29:14.813Z,14.45
2022-09-14T04:31:43.996Z,14.50
2022-09-14T04:34:14.765Z,14.55
2022-09-14T04:36:45.561Z,14.56
2022-09-14T04:39:15.516Z,14.59
2022-09-14T04:41:43.990Z,14.64
2022-09-14T04:44:13.854Z,14.68
2022-09-14T04:46:46.654Z,14.68
2022-09-14T04:49:16.762Z,14.68
2022-09-14T04:51:50.071Z,14.72
2022-09-14T04:54:19.737Z,14.75
2022-09-14T04:56:48.847Z,14.76
2022-09-14T04:59:17.374Z,14.78
2022-09-14T05:01:48.628Z,14.81
2022-09-14T05:04:18.112Z,14.86
2022-09-14T05:06:46.873Z,14.88
2022-09-14T05:09:19.257Z,14.92
2022-09-14T05:11:49.673Z,14.92
2022-09-14T05:14:18.246Z,14.94
2022-09-14T05:16:48.492Z,14.99
2022-09-14T05:19:20.050Z,15.05
2022-09-14T05:21:48.715Z,15.09
2022-09-14T05:24:19.938Z,15.14
2022-09-14T05:26:48.559Z,15.13
2022-09-14T05:29:19.712Z,15.15
2022-09-14T05:31:48.555Z,15.19
2022-09-14T05:34:17.466Z,15.22
2022-09-14T05:36:45.960Z,15.27
2022-09-14T05:39:16.939Z,15.31
2022-09-14T05:41:51.656Z,15.39
2022-09-14T05:44:20.157Z,15.44
2022-09-14T05:46:48.924Z,15.45
2022-09-14T05:49:17.504Z,15.47
2022-09-14T05:51:46.176Z,15.51
2022-09-14T05:54:14.768Z,15.53
2022-09-14T05:56:43.984Z,15.55
2022-09-14T05:59:14.472Z,15.58
2022-09-14T06:01:43.103Z,15.59
2022-09-14T06:04:13.483Z,15.60
2022-09-14T06:06:46.932Z,15.60
2022-09-14T06:09:24.735Z,15.62
2022-09-14T06:11:53.508Z,15.63
2022-09-14T06:14:23.199Z,15.66
2022-09-14T06:16:51.666Z,15.67
2022-09-14T06:19:20.816Z,15.72
2022-09-14T06:21:49.618Z,15.76
2022-09-14T06:24:18.702Z,15.83
2022-09-14T06:26:47.303Z,15.91
2022-09-14T06:29:16.097Z,16.04
2022-09-14T06:31:46.135Z,16.11
2022-09-14T06:34:15.868Z,16.20
2022-09-14T06:36:44.938Z,16.28
2022-09-14T06:39:13.681Z,16.36
2022-09-14T06:41:42.639Z,16.43
2022-09-14T06:44:20.812Z,16.42
2022-09-14T06:46:50.857Z,16.44
2022-09-14T06:49:23.279Z,16.39
2022-09-14T06:51:54.739Z,16.41
2022-09-14T06:54:23.908Z,16.46
2022-09-14T06:56:55.816Z,16.52
2022-09-14T06:59:24.620Z,16.57
2022-09-14T07:01:55.190Z,16.65
2022-09-14T07:04:25.176Z,16.77
2022-09-14T07:06:54.604Z,16.86
2022-09-14T07:09:23.570Z,16.92
2022-09-14T07:11:52.097Z,16.92
2022-09-14T07:14:21.308Z,16.99
2022-09-14T07:16:50.147Z,17.16
2022-09-14T07:19:20.155Z,17.27
2022-09-14T07:21:50.297Z,17.39
2022-09-14T07:24:19.166Z,17.43
2022-09-14T07:26:48.666Z,17.48
2022-09-14T07:29:19.422Z,17.40
2022-09-14T07:31:50.023Z,17.39
2022-09-14T07:34:20.776Z,17.40
2022-09-14T07:36:49.735Z,17.41
2022-09-14T07:39:20.387Z,17.34
2022-09-14T07:41:52.333Z,17.39
2022-09-14T07:44:21.467Z,17.60
2022-09-14T07:46:53.808Z,17.89
2022-09-14T07:49:31.951Z,18.10
2022-09-14T07:52:00.963Z,18.06
2022-09-14T07:54:29.946Z,18.01
2022-09-14T07:56:58.562Z,17.98
2022-09-14T07:59:36.424Z,17.94
2022-09-14T08:02:08.050Z,17.89
2022-09-14T08:04:39.863Z,17.84
2022-09-14T08:07:09.387Z,17.97
2022-09-14T08:09:39.248Z,18.15
2022-09-14T08:12:07.896Z,18.18
2022-09-14T08:14:37.146Z,18.11
2022-09-14T08:17:05.821Z,18.09
2022-09-14T08:19:34.445Z,18.02
2022-09-14T08:22:04.461Z,18.22
2022-09-14T08:24:33.637Z,18.69
2022-09-14T08:27:02.227Z,19.30
2022-09-14T08:29:30.757Z,19.75
2022-09-14T08:32:03.835Z,20.12
2022-09-14T08:34:33.204Z,20.40
2022-09-14T08:37:03.517Z,20.51
2022-09-14T08:39:32.627Z,20.58
2022-09-14T08:42:02.188Z,20.31
2022-09-14T08:44:32.715Z,19.91
2022-09-14T08:47:03.918Z,19.80
2022-09-14T08:49:51.425Z,20.05
2022-09-14T08:52:29.461Z,19.97
2022-09-14T08:55:01.583Z,19.80
2022-09-14T08:57:36.355Z,19.98
2022-09-14T09:00:10.594Z,20.43
2022-09-14T09:03:05.547Z,20.84
2022-09-14T09:05:40.802Z,20.94
2022-09-14T09:08:19.043Z,20.91
2022-09-14T09:10:49.232Z,20.97
2022-09-14T09:13:22.057Z,20.61
2022-09-14T09:15:53.797Z,20.22
2022-09-14T09:18:28.011Z,19.81
2022-09-14T09:21:01.879Z,20.00
2022-09-14T09:23:33.950Z,20.33
2022-09-14T09:26:06.110Z,20.54
2022-09-14T09:28:35.470Z,20.75
2022-09-14T09:31:11.441Z,20.57
2022-09-14T09:34:15.808Z,20.70
2022-09-14T09:36:47.690Z,21.03
2022-09-14T09:39:18.654Z,21.12
2022-09-14T09:41:50.869Z,20.88
2022-09-14T09:44:20.419Z,20.99
2022-09-14T09:46:51.832Z,21.38
2022-09-14T09:49:24.595Z,21.60
2022-09-14T09:51:56.857Z,21.68
2022-09-14T09:54:34.626Z,21.53
2022-09-14T09:57:06.791Z,21.39
2022-09-14T09:59:39.669Z,21.38
2022-09-14T10:02:27.869Z,21.28
2022-09-14T10:05:02.647Z,21.66
2022-09-14T10:07:33.537Z,22.09
2022-09-14T10:10:06.773Z,22.11
2022-09-14T10:12:38.974Z,21.93
2022-09-14T10:15:18.276Z,21.65
2022-09-14T10:18:02.157Z,21.31
2022-09-14T10:20:32.425Z,21.19
2022-09-14T10:23:24.132Z,21.17
2022-09-14T10:26:15.983Z,21.20
2022-09-14T10:28:47.910Z,21.20
2022-09-14T10:31:24.325Z,21.26
2022-09-14T10:33:56.321Z,21.66
2022-09-14T10:36:29.831Z,22.29
2022-09-14T10:39:08.502Z,22.71
2022-09-14T10:41:43.682Z,23.01
2022-09-14T10:44:32.468Z,23.00
2022-09-14T10:47:21.738Z,22.94
2022-09-14T10:50:04.033Z,23.13
2022-09-14T10:52:46.117Z,22.61
2022-09-14T10:55:32.251Z,22.16
2022-09-14T10:58:18.066Z,22.09
2022-09-14T11:00:57.641Z,22.24
2022-09-14T11:03:44.002Z,22.94
2022-09-14T11:06:29.815Z,23.35
2022-09-14T11:09:03.445Z,23.76
2022-09-14T11:11:46.792Z,24.00
2022-09-14T11:14:31.456Z,24.14
2022-09-14T11:17:20.604Z,24.12
2022-09-14T11:20:03.119Z,23.85
2022-09-14T11:22:42.330Z,23.85
2022-09-14T11:25:15.864Z,23.92
2022-09-14T11:27:51.322Z,24.03
2022-09-14T11:30:22.498Z,23.94
2022-09-14T11:32:56.552Z,24.41
2022-09-14T11:35:30.475Z,24.54
2022-09-14T11:38:02.575Z,24.35
2022-09-14T11:40:36.475Z,23.98
2022-09-14T11:43:14.753Z,23.78
2022-09-14T11:45:48.754Z,23.58
2022-09-14T11:48:42.417Z,23.32
2022-09-14T11:51:20.055Z,23.20
2022-09-14T11:53:49.059Z,23.24
2022-09-14T11:56:29.521Z,23.51
2022-09-14T11:59:00.233Z,23.77
2022-09-14T12:01:32.890Z,23.98
2022-09-14T12:04:21.038Z,24.22
2022-09-14T12:06:57.551Z,24.02
2022-09-14T12:09:50.499Z,23.88
2022-09-14T12:12:39.897Z,23.74
2022-09-14T12:15:23.235Z,23.59
2022-09-14T12:17:52.300Z,23.48
2022-09-14T12:20:42.081Z,23.60
2022-09-14T12:23:34.087Z,23.35
2022-09-14T12:26:06.456Z,22.89
2022-09-14T12:28:48.486Z,22.57
2022-09-14T12:31:40.139Z,22.50
2022-09-14T12:34:27.381Z,22.35
2022-09-14T12:37:33.717Z,22.30
2022-09-14T12:40:37.550Z,22.56
2022-09-14T12:43:48.716Z,22.93
2022-09-14T12:46:41.107Z,23.14
2022-09-14T12:49:36.621Z,23.58
2022-09-14T12:52:27.624Z,23.68
2022-09-14T12:55:16.394Z,23.40
2022-09-14T12:57:52.153Z,23.13
2022-09-14T13:00:22.775Z,23.33
2022-09-14T13:03:19.580Z,23.56
2022-09-14T13:05:48.093Z,23.66
2022-09-14T13:08:23.769Z,23.60
2022-09-14T13:10:54.669Z,23.42
2022-09-14T13:13:29.488Z,23.15
2022-09-14T13:16:01.772Z,22.91
2022-09-14T13:18:34.078Z,22.65
2022-09-14T13:21:12.318Z,22.37
2022-09-14T13:23:44.001Z,22.18
2022-09-14T13:26:23.322Z,22.10
2022-09-14T13:28:54.001Z,22.05
2022-09-14T13:31:30.275Z,21.82
2022-09-14T13:34:01.259Z,21.70
2022-09-14T13:36:32.194Z,21.56
2022-09-14T13:39:03.387Z,21.45
2022-09-14T13:41:34.400Z,21.35
2022-09-14T13:44:03.757Z,21.28
2022-09-14T13:46:32.539Z,21.18
2022-09-14T13:49:01.563Z,21.12
2022-09-14T13:51:30.826Z,21.10
2022-09-14T13:54:17.377Z,21.06
2022-09-14T13:56:48.253Z,20.98
2022-09-14T13:59:22.080Z,21.01
2022-09-14T14:02:01.328Z,20.95
2022-09-14T14:04:35.519Z,20.91
2022-09-14T14:07:16.921Z,20.78
2022-09-14T14:09:50.944Z,20.73
2022-09-14T14:12:26.880Z,20.71
2022-09-14T14:15:01.397Z,20.70
2022-09-14T14:17:37.038Z,20.65
2022-09-14T14:20:34.849Z,20.58
2022-09-14T14:23:21.446Z,20.53
2022-09-14T14:25:54.706Z,20.51
2022-09-14T14:28:32.830Z,20.48
2022-09-14T14:31:08.690Z,20.47
2022-09-14T14:33:46.625Z,20.44
2022-09-14T14:36:16.796Z,20.47
2022-09-14T14:38:50.751Z,20.52
2022-09-14T14:41:22.789Z,20.48
2022-09-14T14:43:53.971Z,20.45
2022-09-14T14:46:26.035Z,20.40
2022-09-14T14:48:55.400Z,20.39
2022-09-14T14:51:25.668Z,20.43
2022-09-14T14:53:55.330Z,20.51
2022-09-14T14:56:24.736Z,20.61
2022-09-14T14:58:57.826Z,20.64
2022-09-14T15:01:31.323Z,20.61
2022-09-14T15:04:00.496Z,20.53
2022-09-14T15:06:30.476Z,20.45
2022-09-14T15:09:00.244Z,20.42
2022-09-14T15:11:29.144Z,20.37
2022-09-14T15:14:00.156Z,20.30
2022-09-14T15:16:29.134Z,20.21
2022-09-14T15:18:57.829Z,20.10
2022-09-14T15:21:27.505Z,20.03
2022-09-14T15:23:59.048Z,19.97
2022-09-14T15:26:28.120Z,19.90
2022-09-14T15:28:57.428Z,19.87
2022-09-14T15:31:28.717Z,19.84
2022-09-14T15:33:58.337Z,19.83
2022-09-14T15:36:37.799Z,19.83
2022-09-14T15:39:07.851Z,19.85
2022-09-14T15:41:36.701Z,19.83
2022-09-14T15:44:06.331Z,19.85
2022-09-14T15:46:36.865Z,19.85
2022-09-14T15:49:07.240Z,19.84
2022-09-14T15:51:36.125Z,19.71
2022-09-14T15:54:06.135Z,19.59
2022-09-14T15:56:36.364Z,19.47
2022-09-14T15:59:05.865Z,19.33
2022-09-14T16:01:37.889Z,19.21
2022-09-14T16:04:11.563Z,19.09
2022-09-14T16:06:41.669Z,18.97
2022-09-14T16:09:12.131Z,18.88
2022-09-14T16:11:41.687Z,18.77
2022-09-14T16:14:12.211Z,18.65
2022-09-14T16:16:43.605Z,18.58
2022-09-14T16:19:14.174Z,18.47
2022-09-14T16:21:44.069Z,18.37
2022-09-14T16:24:19.617Z,18.26
2022-09-14T16:26:48.789Z,18.16
2022-09-14T16:29:23.489Z,18.01
2022-09-14T16:31:54.302Z,17.88
2022-09-14T16:34:24.840Z,17.78
2022-09-14T16:36:53.830Z,17.65
2022-09-14T16:39:25.494Z,17.53
2022-09-14T16:41:55.948Z,17.41
2022-09-14T16:44:27.957Z,17.31
2022-09-14T16:47:01.913Z,17.21
2022-09-14T16:49:31.213Z,17.11
2022-09-14T16:52:00.892Z,17.02
2022-09-14T16:54:31.860Z,16.93
2022-09-14T16:57:01.631Z,16.81
2022-09-14T16:59:30.711Z,16.73
2022-09-14T17:02:02.503Z,16.68
2022-09-14T17:04:31.064Z,16.62
2022-09-14T17:07:00.795Z,16.57
2022-09-14T17:09:31.688Z,16.53
2022-09-14T17:12:00.765Z,16.49
2022-09-14T17:14:33.919Z,16.44
2022-09-14T17:17:04.360Z,16.41
2022-09-14T17:19:34.880Z,16.30
2022-09-14T17:22:04.032Z,16.24
2022-09-14T17:24:32.795Z,16.22
2022-09-14T17:27:01.254Z,16.19
2022-09-14T17:29:32.268Z,16.17
2022-09-14T17:32:00.939Z,16.15
2022-09-14T17:34:31.226Z,16.12
2022-09-14T17:37:00.803Z,16.11
2022-09-14T17:39:29.860Z,16.08
2022-09-14T17:41:58.988Z,16.04
2022-09-14T17:44:31.607Z,16.00
2022-09-14T17:47:00.138Z,15.99
2022-09-14T17:49:30.760Z,15.97
2022-09-14T17:51:59.132Z,15.94
2022-09-14T17:54:27.901Z,15.93
2022-09-14T17:56:56.894Z,15.93
2022-09-14T17:59:26.054Z,15.92
2022-09-14T18:01:55.093Z,15.92
2022-09-14T18:04:24.076Z,15.92
2022-09-14T18:06:54.000Z,15.91
2022-09-14T18:09:25.388Z,15.89
2022-09-14T18:11:57.329Z,15.89
2022-09-14T18:14:27.715Z,15.89
2022-09-14T18:17:00.805Z,15.88
2022-09-14T18:19:32.886Z,15.86
2022-09-14T18:22:06.381Z,15.82
2022-09-14T18:24:35.440Z,15.81
2022-09-14T18:27:07.749Z,15.81
2022-09-14T18:29:36.624Z,15.79
2022-09-14T18:32:05.571Z,15.77
2022-09-14T18:34:34.798Z,15.75
2022-09-14T18:37:04.837Z,15.74
2022-09-14T18:39:33.484Z,15.72
2022-09-14T18:42:02.512Z,15.64
2022-09-14T18:44:31.581Z,15.66
2022-09-14T18:47:00.560Z,15.62
2022-09-14T18:49:29.538Z,15.58
2022-09-14T18:51:58.203Z,15.56
2022-09-14T18:54:29.067Z,15.54
2022-09-14T18:56:58.058Z,15.51
2022-09-14T18:59:27.232Z,15.46
2022-09-14T19:01:56.081Z,15.43
2022-09-14T19:04:25.964Z,15.39
2022-09-14T19:06:56.047Z,15.37
2022-09-14T19:12:56.821Z,15.29
2022-09-14T19:15:30.826Z,15.27
2022-09-14T19:18:01.961Z,15.27
2022-09-14T19:20:43.303Z,15.27
2022-09-14T19:23:22.830Z,15.28
2022-09-14T19:25:51.835Z,15.28
2022-09-14T19:28:22.499Z,15.30
2022-09-14T19:30:51.562Z,15.29
2022-09-14T19:33:20.677Z,15.28
2022-09-14T19:35:50.070Z,15.30
2022-09-14T19:38:19.016Z,15.30
2022-09-14T19:40:54.021Z,15.28
2022-09-14T19:43:24.791Z,15.26
2022-09-14T19:45:53.968Z,15.27
2022-09-14T19:48:22.761Z,15.29
2022-09-14T19:50:53.528Z,15.29
2022-09-14T19:53:22.100Z,15.29
2022-09-14T19:55:51.081Z,15.31
2022-09-14T19:58:20.026Z,15.32
2022-09-14T20:00:55.755Z,15.31
2022-09-14T20:03:26.571Z,15.31
2022-09-14T20:06:01.072Z,15.31
2022-09-14T20:08:30.424Z,15.32
2022-09-14T20:11:05.745Z,15.29
2022-09-14T20:13:34.924Z,15.27
2022-09-14T20:16:12.768Z,15.25
2022-09-14T20:18:42.498Z,15.26
2022-09-14T20:21:11.919Z,15.28
2022-09-14T20:23:57.951Z,15.29
2022-09-14T20:26:31.459Z,15.29
2022-09-14T20:29:01.498Z,15.28
2022-09-14T20:31:32.578Z,15.26
2022-09-14T20:34:02.164Z,15.26
2022-09-14T20:36:30.777Z,15.24
2022-09-14T20:39:00.659Z,15.23
2022-09-14T20:41:32.445Z,15.24
2022-09-14T20:44:01.336Z,15.26
2022-09-14T20:46:35.120Z,15.27
2022-09-14T20:49:05.666Z,15.29
2022-09-14T20:51:35.672Z,15.30
2022-09-14T20:54:05.115Z,15.28
2022-09-14T20:56:35.610Z,15.28
2022-09-14T20:59:09.702Z,15.26
2022-09-14T21:01:41.395Z,15.26
2022-09-14T21:04:12.847Z,15.26
2022-09-14T21:06:44.833Z,15.25
2022-09-14T21:09:14.705Z,15.20
2022-09-14T21:11:45.932Z,15.18
2022-09-14T21:14:15.543Z,15.14
2022-09-14T21:16:47.580Z,15.14
2022-09-14T21:19:18.137Z,15.14
2022-09-14T21:21:46.776Z,15.14
2022-09-14T21:24:16.458Z,15.15
2022-09-14T21:26:45.763Z,15.18
2022-09-14T21:29:17.526Z,15.21
2022-09-14T21:31:48.910Z,15.25
2022-09-14T21:34:18.720Z,15.27
2022-09-14T21:36:49.417Z,15.29
2022-09-14T21:39:21.655Z,15.30
2022-09-14T21:41:55.739Z,15.33
2022-09-14T21:44:30.035Z,15.39
2022-09-14T21:47:00.727Z,15.41
2022-09-14T21:49:29.842Z,15.43
2022-09-14T21:51:58.787Z,15.43
2022-09-14T21:54:28.130Z,15.42
2022-09-14T21:56:57.413Z,15.45
2022-09-14T21:59:26.018Z,15.43
2022-09-14T22:01:54.913Z,15.42
2022-09-14T22:04:26.366Z,15.40
2022-09-14T22:06:57.473Z,15.37
2022-09-14T22:09:28.412Z,15.38
2022-09-14T22:11:59.599Z,15.37
2022-09-14T22:14:29.684Z,15.36
2022-09-14T22:16:58.220Z,15.35
2022-09-14T22:19:30.658Z,15.35
2022-09-14T22:22:00.324Z,15.30
2022-09-14T22:24:37.024Z,15.25
2022-09-14T22:27:08.259Z,15.20
2022-09-14T22:29:37.449Z,15.21
2022-09-14T22:32:11.484Z,15.18
2022-09-14T22:34:43.904Z,15.24
2022-09-14T22:37:15.165Z,15.23
2022-09-14T22:39:43.537Z,15.26
2022-09-14T22:42:12.695Z,15.28
2022-09-14T22:44:40.992Z,15.30
2022-09-14T22:47:09.749Z,15.32
2022-09-14T22:49:38.599Z,15.29
2022-09-14T22:52:08.532Z,15.32
2022-09-14T22:54:36.930Z,15.35
2022-09-14T22:57:05.496Z,15.35
2022-09-14T22:59:33.780Z,15.34
2022-09-14T23:02:02.662Z,15.31
2022-09-14T23:04:31.252Z,15.31
2022-09-14T23:07:01.253Z,15.29
2022-09-14T23:09:31.163Z,15.27
2022-09-14T23:11:59.485Z,15.25
2022-09-14T23:14:28.356Z,15.24
2022-09-14T23:16:57.040Z,15.24
2022-09-14T23:19:25.646Z,15.23
2022-09-14T23:21:53.890Z,15.23
2022-09-14T23:24:22.544Z,15.24
2022-09-14T23:26:52.755Z,15.25
2022-09-14T23:29:21.379Z,15.22
2022-09-14T23:31:49.874Z,15.23
2022-09-14T23:34:18.144Z,15.24
2022-09-14T23:36:46.495Z,15.26
2022-09-14T23:39:14.840Z,15.26
2022-09-14T23:41:43.390Z,15.26
2022-09-14T23:44:14.764Z,15.22
2022-09-14T23:46:43.608Z,15.18
2022-09-14T23:49:15.683Z,15.16
2022-09-14T23:51:47.547Z,15.15
2022-09-14T23:54:16.361Z,15.14
2022-09-14T23:56:45.131Z,15.12
2022-09-14T23:59:16.431Z,15.08
